createdAt,value
2022-08-31T00:00:13.752Z,98469.69
2022-08-31T00:02:59.408Z,98471.78
2022-08-31T00:05:26.366Z,98476.69
2022-08-31T00:07:55.486Z,98475.09
2022-08-31T00:10:32.334Z,98476.78
2022-08-31T00:13:06.773Z,98474.47
2022-08-31T00:15:35.595Z,98479.34
2022-08-31T00:18:03.599Z,98476.16
2022-08-31T00:20:33.784Z,98477.84
2022-08-31T00:23:06.360Z,98475.84
2022-08-31T00:25:34.354Z,98475.50
2022-08-31T00:28:01.940Z,98477.19
2022-08-31T00:30:29.916Z,98476.41
2022-08-31T00:32:58.447Z,98462.34
2022-08-31T00:35:27.577Z,98472.47
2022-08-31T00:37:54.713Z,98479.72
2022-08-31T00:40:21.901Z,98474.00
2022-08-31T00:42:51.493Z,98473.28
2022-08-31T00:45:18.848Z,98472.47
2022-08-31T00:47:45.666Z,98472.47
2022-08-31T00:50:15.329Z,98469.63
2022-08-31T00:52:46.647Z,98465.22
2022-08-31T00:55:18.129Z,98467.66
2022-08-31T00:57:48.083Z,98479.03
2022-08-31T01:00:19.267Z,98466.91
2022-08-31T01:02:47.058Z,98457.63
2022-08-31T01:05:14.986Z,98466.53
2022-08-31T01:07:42.523Z,98464.94
2022-08-31T01:10:10.677Z,98462.97
2022-08-31T01:12:37.838Z,98469.41
2022-08-31T01:15:08.717Z,98459.28
2022-08-31T01:17:36.735Z,98456.56
2022-08-31T01:20:12.367Z,98461.41
2022-08-31T01:22:44.923Z,98457.44
2022-08-31T01:25:13.696Z,98454.72
2022-08-31T01:27:40.835Z,98460.03
2022-08-31T01:30:11.421Z,98464.06
2022-08-31T01:32:39.983Z,98464.91
2022-08-31T01:35:07.621Z,98461.66
2022-08-31T01:37:39.054Z,98463.31
2022-08-31T01:40:07.478Z,98460.94
2022-08-31T01:42:34.616Z,98458.94
2022-08-31T01:45:02.528Z,98460.56
2022-08-31T01:47:31.887Z,98445.25
2022-08-31T01:49:58.732Z,98446.50
2022-08-31T01:52:28.020Z,98451.38
2022-08-31T01:54:55.966Z,98449.84
2022-08-31T01:57:30.879Z,98455.56
2022-08-31T02:00:05.632Z,98447.56
2022-08-31T02:02:32.642Z,98441.94
2022-08-31T02:04:59.623Z,98443.56
2022-08-31T02:07:27.103Z,98446.75
2022-08-31T02:09:54.779Z,98438.34
2022-08-31T02:12:21.671Z,98448.41
2022-08-31T02:14:48.640Z,98444.44
2022-08-31T02:17:16.400Z,98446.84
2022-08-31T02:19:43.386Z,98449.34
2022-08-31T02:22:10.260Z,98444.56
2022-08-31T02:24:37.094Z,98441.38
2022-08-31T02:27:04.116Z,98435.72
2022-08-31T02:29:31.215Z,98432.50
2022-08-31T02:31:58.679Z,98440.56
2022-08-31T02:34:25.617Z,98428.94
2022-08-31T02:36:52.724Z,98437.00
2022-08-31T02:39:19.911Z,98434.59
2022-08-31T02:41:47.348Z,98434.66
2022-08-31T02:44:14.567Z,98438.31
2022-08-31T02:46:44.577Z,98425.81
2022-08-31T02:49:11.494Z,98429.03
2022-08-31T02:51:42.446Z,98434.28
2022-08-31T02:54:09.476Z,98427.47
2022-08-31T02:56:36.448Z,98435.16
2022-08-31T02:59:03.667Z,98426.31
2022-08-31T03:01:30.607Z,98431.94
2022-08-31T03:03:57.709Z,98431.56
2022-08-31T03:06:24.493Z,98433.59
2022-08-31T03:08:51.422Z,98429.53
2022-08-31T03:11:19.343Z,98422.66
2022-08-31T03:13:46.314Z,98424.25
2022-08-31T03:16:15.156Z,98423.00
2022-08-31T03:18:42.449Z,98425.06
2022-08-31T03:21:09.282Z,98419.78
2022-08-31T03:23:36.887Z,98422.97
2022-08-31T03:26:05.883Z,98419.72
2022-08-31T03:28:34.432Z,98426.53
2022-08-31T03:31:01.510Z,98418.06
2022-08-31T03:33:28.495Z,98426.13
2022-08-31T03:35:55.361Z,98427.72
2022-08-31T03:38:22.125Z,98423.72
2022-08-31T03:40:50.935Z,98415.28
2022-08-31T03:43:18.049Z,98418.94
2022-08-31T03:45:44.893Z,98413.31
2022-08-31T03:48:13.171Z,98418.94
2022-08-31T03:50:41.600Z,98415.72
2022-08-31T03:53:09.483Z,98406.84
2022-08-31T03:55:39.283Z,98407.56
2022-08-31T03:58:07.479Z,98405.53
2022-08-31T04:00:34.976Z,98412.03
2022-08-31T04:03:02.433Z,98406.78
2022-08-31T04:05:31.170Z,98403.91
2022-08-31T04:07:58.495Z,98414.78
2022-08-31T04:10:25.324Z,98407.53
2022-08-31T04:12:52.493Z,98405.13
2022-08-31T04:15:20.459Z,98403.47
2022-08-31T04:17:47.877Z,98405.03
2022-08-31T04:20:16.511Z,98397.72
2022-08-31T04:22:43.391Z,98395.25
2022-08-31T04:25:10.560Z,98395.94
2022-08-31T04:27:40.473Z,98395.94
2022-08-31T04:30:09.478Z,98399.94
2022-08-31T04:32:36.499Z,98405.94
2022-08-31T04:35:04.427Z,98397.97
2022-08-31T04:37:43.410Z,98399.50
2022-08-31T04:40:20.384Z,98401.34
2022-08-31T04:42:52.656Z,98401.22
2022-08-31T04:45:19.537Z,98406.84
2022-08-31T04:47:46.435Z,98409.63
2022-08-31T04:50:16.637Z,98412.38
2022-08-31T04:52:45.205Z,98411.44
2022-08-31T04:55:30.571Z,98411.44
2022-08-31T04:57:57.492Z,98408.38
2022-08-31T05:00:24.938Z,98394.94
2022-08-31T05:02:53.587Z,98404.78
2022-08-31T05:05:20.406Z,98394.53
2022-08-31T05:07:47.306Z,98408.34
2022-08-31T05:10:15.107Z,98401.09
2022-08-31T05:12:41.939Z,98409.41
2022-08-31T05:15:09.050Z,98402.97
2022-08-31T05:17:35.992Z,98409.56
2022-08-31T05:20:05.397Z,98400.16
2022-08-31T05:22:32.503Z,98397.03
2022-08-31T05:24:59.524Z,98398.56
2022-08-31T05:27:26.363Z,98407.25
2022-08-31T05:29:53.292Z,98411.25
2022-08-31T05:32:20.091Z,98413.72
2022-08-31T05:34:47.111Z,98407.38
2022-08-31T05:37:13.983Z,98405.13
2022-08-31T05:39:41.000Z,98418.91
2022-08-31T05:42:07.892Z,98425.50
2022-08-31T05:44:36.315Z,98427.25
2022-08-31T05:47:07.105Z,98425.50
2022-08-31T05:49:35.214Z,98421.22
2022-08-31T05:52:03.071Z,98428.63
2022-08-31T05:54:30.226Z,98434.78
2022-08-31T05:56:59.905Z,98436.03
2022-08-31T05:59:29.705Z,98438.47
2022-08-31T06:01:57.458Z,98439.72
2022-08-31T06:04:24.516Z,98449.44
2022-08-31T06:06:52.346Z,98441.78
2022-08-31T06:09:19.616Z,98445.84
2022-08-31T06:11:46.935Z,98444.97
2022-08-31T06:14:13.850Z,98443.34
2022-08-31T06:16:44.441Z,98444.00
2022-08-31T06:19:11.778Z,98451.19
2022-08-31T06:21:49.941Z,98443.81
2022-08-31T06:24:18.710Z,98445.25
2022-08-31T06:26:56.835Z,98448.44
2022-08-31T06:29:25.242Z,98449.91
2022-08-31T06:31:52.285Z,98440.41
2022-08-31T06:34:20.367Z,98438.59
2022-08-31T06:36:49.852Z,98444.22
2022-08-31T06:39:17.043Z,98449.38
2022-08-31T06:41:44.057Z,98447.19
2022-08-31T06:44:14.149Z,98449.06
2022-08-31T06:46:42.258Z,98441.25
2022-08-31T06:49:14.916Z,98444.50
2022-08-31T06:51:41.982Z,98441.75
2022-08-31T06:54:28.576Z,98452.94
2022-08-31T06:57:00.302Z,98437.19
2022-08-31T06:59:29.790Z,98442.88
2022-08-31T07:02:01.650Z,98442.34
2022-08-31T07:04:34.801Z,98443.91
2022-08-31T07:07:03.690Z,98439.31
2022-08-31T07:09:30.601Z,98442.88
2022-08-31T07:11:57.476Z,98443.56
2022-08-31T07:14:26.983Z,98442.13
2022-08-31T07:16:56.801Z,98441.59
2022-08-31T07:19:25.095Z,98440.91
2022-08-31T07:21:54.885Z,98445.16
2022-08-31T07:24:25.889Z,98440.09
2022-08-31T07:27:04.537Z,98440.78
2022-08-31T07:29:37.803Z,98450.31
2022-08-31T07:32:04.785Z,98443.88
2022-08-31T07:34:33.784Z,98446.88
2022-08-31T07:37:19.757Z,98445.06
2022-08-31T07:40:07.743Z,98442.25
2022-08-31T07:42:39.737Z,98448.38
2022-08-31T07:45:12.659Z,98447.00
2022-08-31T07:47:47.180Z,98449.63
2022-08-31T07:50:17.388Z,98459.44
2022-08-31T07:52:54.373Z,98448.75
2022-08-31T07:55:23.625Z,98456.69
2022-08-31T07:57:53.554Z,98455.63
2022-08-31T08:00:29.095Z,98451.00
2022-08-31T08:02:56.894Z,98468.19
2022-08-31T08:05:28.811Z,98455.88
2022-08-31T08:08:11.868Z,98455.91
2022-08-31T08:10:46.643Z,98454.47
2022-08-31T08:13:20.453Z,98452.47
2022-08-31T08:15:52.094Z,98457.91
2022-08-31T08:18:19.588Z,98459.16
2022-08-31T08:20:46.768Z,98454.66
2022-08-31T08:23:18.299Z,98453.66
2022-08-31T08:25:48.056Z,98470.63
2022-08-31T08:31:05.940Z,98460.69
2022-08-31T08:33:35.439Z,98462.59
2022-08-31T08:36:07.928Z,98453.56
2022-08-31T08:38:39.308Z,98464.06
2022-08-31T08:41:13.239Z,98464.13
2022-08-31T08:43:43.890Z,98469.91
2022-08-31T08:46:31.728Z,98459.75
2022-08-31T08:49:15.198Z,98466.28
2022-08-31T08:51:42.991Z,98456.69
2022-08-31T08:54:19.401Z,98457.50
2022-08-31T08:56:49.420Z,98450.44
2022-08-31T08:59:19.992Z,98462.16
2022-08-31T09:01:51.571Z,98469.78
2022-08-31T09:04:18.408Z,98461.19
2022-08-31T09:07:09.351Z,98463.59
2022-08-31T09:09:57.503Z,98462.47
2022-08-31T09:12:31.912Z,98469.50
2022-08-31T09:15:28.436Z,98469.66
2022-08-31T09:18:13.720Z,98472.72
2022-08-31T09:20:41.361Z,98484.34
2022-08-31T09:23:08.269Z,98466.97
2022-08-31T09:25:59.072Z,98478.75
2022-08-31T09:28:36.139Z,98501.38
2022-08-31T09:31:03.818Z,98497.84
2022-08-31T09:33:34.531Z,98490.38
2022-08-31T09:36:18.430Z,98489.31
2022-08-31T09:38:47.231Z,98500.19
2022-08-31T09:41:29.065Z,98496.16
2022-08-31T09:44:47.825Z,98494.63
2022-08-31T09:47:30.623Z,98489.78
2022-08-31T09:49:58.047Z,98483.13
2022-08-31T09:52:50.014Z,98488.63
2022-08-31T09:55:25.004Z,98490.94
2022-08-31T09:58:03.138Z,98485.53
2022-08-31T10:00:39.926Z,98489.59
2022-08-31T10:03:09.961Z,98485.78
2022-08-31T10:05:43.625Z,98491.47
2022-08-31T10:08:33.946Z,98493.25
2022-08-31T10:11:12.488Z,98506.81
2022-08-31T10:13:46.456Z,98505.34
2022-08-31T10:16:30.551Z,98509.63
2022-08-31T10:19:06.638Z,98509.72
2022-08-31T10:21:44.106Z,98495.03
2022-08-31T10:24:33.744Z,98499.44
2022-08-31T10:27:31.606Z,98508.06
2022-08-31T10:30:02.897Z,98512.84
2022-08-31T10:32:53.375Z,98503.84
2022-08-31T10:35:46.972Z,98505.72
2022-08-31T10:38:26.422Z,98510.03
2022-08-31T10:41:11.957Z,98522.22
2022-08-31T10:43:49.108Z,98514.47
2022-08-31T10:46:16.752Z,98518.25
2022-08-31T10:48:47.359Z,98512.91
2022-08-31T10:51:22.480Z,98520.44
2022-08-31T10:54:28.929Z,98514.47
2022-08-31T10:57:21.398Z,98526.56
2022-08-31T10:59:55.828Z,98527.38
2022-08-31T11:02:55.663Z,98535.13
2022-08-31T11:05:30.214Z,98542.75
2022-08-31T11:08:32.208Z,98545.34
2022-08-31T11:11:00.679Z,98542.56
2022-08-31T11:13:51.330Z,98539.84
2022-08-31T11:16:36.788Z,98536.84
2022-08-31T11:19:19.708Z,98541.66
2022-08-31T11:22:08.367Z,98542.31
2022-08-31T11:25:03.492Z,98525.72
2022-08-31T11:27:39.781Z,98530.75
2022-08-31T11:30:26.908Z,98535.81
2022-08-31T11:32:59.716Z,98520.03
2022-08-31T11:36:20.252Z,98530.13
2022-08-31T11:39:05.565Z,98526.44
2022-08-31T11:41:51.676Z,98516.00
2022-08-31T11:44:30.997Z,98539.75
2022-08-31T11:47:29.270Z,98530.81
2022-08-31T11:50:04.048Z,98532.91
2022-08-31T11:52:48.634Z,98541.00
2022-08-31T11:55:23.590Z,98531.38
2022-08-31T11:58:10.279Z,98535.44
2022-08-31T12:00:57.456Z,98541.59
2022-08-31T12:03:38.779Z,98553.94
2022-08-31T12:06:09.249Z,98543.28
2022-08-31T12:08:52.536Z,98539.19
2022-08-31T12:11:37.236Z,98557.16
2022-08-31T12:14:29.648Z,98553.31
2022-08-31T12:17:09.724Z,98556.56
2022-08-31T12:20:02.439Z,98548.38
2022-08-31T12:23:30.061Z,98559.13
2022-08-31T12:26:24.223Z,98560.41
2022-08-31T12:28:51.012Z,98571.72
2022-08-31T12:31:18.808Z,98569.31
2022-08-31T12:34:08.266Z,98575.44
2022-08-31T12:36:36.664Z,98569.41
2022-08-31T12:39:10.045Z,98575.53
2022-08-31T12:41:47.155Z,98558.41
2022-08-31T12:44:45.614Z,98572.16
2022-08-31T12:47:43.299Z,98580.41
2022-08-31T12:50:37.825Z,98583.28
2022-08-31T12:53:13.824Z,98584.56
2022-08-31T12:55:46.735Z,98586.06
2022-08-31T12:58:53.172Z,98586.44
2022-08-31T13:01:24.107Z,98591.19
2022-08-31T13:03:55.171Z,98583.66
2022-08-31T13:06:36.542Z,98585.44
2022-08-31T13:09:05.723Z,98593.94
2022-08-31T13:11:55.219Z,98594.53
2022-08-31T13:14:26.861Z,98592.13
2022-08-31T13:17:03.724Z,98588.78
2022-08-31T13:19:33.361Z,98593.63
2022-08-31T13:22:17.291Z,98592.91
2022-08-31T13:24:53.788Z,98598.97
2022-08-31T13:27:27.205Z,98612.31
2022-08-31T13:29:59.387Z,98602.66
2022-08-31T13:32:34.086Z,98600.19
2022-08-31T13:35:09.234Z,98594.84
2022-08-31T13:38:05.119Z,98608.00
2022-08-31T13:40:39.685Z,98595.91
2022-08-31T13:43:10.112Z,98603.31
2022-08-31T13:45:57.902Z,98602.09
2022-08-31T13:48:32.683Z,98597.75
2022-08-31T13:51:13.169Z,98592.97
2022-08-31T13:54:06.077Z,98593.88
2022-08-31T13:56:51.451Z,98614.97
2022-08-31T13:59:24.327Z,98605.84
2022-08-31T14:02:04.914Z,98624.97
2022-08-31T14:05:38.454Z,98621.91
2022-08-31T14:08:09.463Z,98619.91
2022-08-31T14:10:48.082Z,98628.28
2022-08-31T14:13:14.892Z,98632.75
2022-08-31T14:15:56.581Z,98630.88
2022-08-31T14:18:26.022Z,98636.97
2022-08-31T14:21:21.626Z,98638.25
2022-08-31T14:24:00.544Z,98638.22
2022-08-31T14:26:30.541Z,98641.44
2022-08-31T14:29:00.601Z,98647.84
2022-08-31T14:31:37.560Z,98647.41
2022-08-31T14:34:24.993Z,98639.75
2022-08-31T14:37:08.309Z,98654.22
2022-08-31T14:39:45.630Z,98641.38
2022-08-31T14:42:29.381Z,98649.47
2022-08-31T14:45:04.008Z,98639.84
2022-08-31T14:47:42.787Z,98660.75
2022-08-31T14:50:12.567Z,98655.94
2022-08-31T14:52:46.339Z,98663.56
2022-08-31T14:55:14.370Z,98655.94
2022-08-31T14:57:46.706Z,98656.78
2022-08-31T15:00:23.403Z,98664.03
2022-08-31T15:02:57.617Z,98661.63
2022-08-31T15:05:25.864Z,98672.13
2022-08-31T15:07:56.980Z,98678.56
2022-08-31T15:10:25.943Z,98682.59
2022-08-31T15:12:53.842Z,98686.59
2022-08-31T15:15:21.090Z,98684.97
2022-08-31T15:17:51.507Z,98683.38
2022-08-31T15:20:23.409Z,98689.81
2022-08-31T15:22:50.702Z,98692.22
2022-08-31T15:25:19.999Z,98692.22
2022-08-31T15:27:49.515Z,98686.97
2022-08-31T15:30:19.232Z,98688.22
2022-08-31T15:32:48.316Z,98691.44
2022-08-31T15:35:23.538Z,98682.56
2022-08-31T15:38:00.591Z,98684.19
2022-08-31T15:40:39.074Z,98685.78
2022-08-31T15:43:09.702Z,98690.63
2022-08-31T15:45:37.364Z,98701.06
2022-08-31T15:48:23.494Z,98697.00
2022-08-31T15:51:00.368Z,98695.81
2022-08-31T15:53:29.519Z,98698.56
2022-08-31T15:56:08.323Z,98703.34
2022-08-31T15:58:39.121Z,98704.94
2022-08-31T16:01:18.306Z,98706.56
2022-08-31T16:04:07.020Z,98711.38
2022-08-31T16:06:35.039Z,98721.03
2022-08-31T16:09:03.738Z,98724.25
2022-08-31T16:11:37.000Z,98725.81
2022-08-31T16:14:05.380Z,98727.44
2022-08-31T16:16:35.519Z,98729.03
2022-08-31T16:19:04.364Z,98725.03
2022-08-31T16:21:35.752Z,98724.25
2022-08-31T16:24:08.049Z,98728.28
2022-08-31T16:26:42.662Z,98736.69
2022-08-31T16:29:14.609Z,98727.03
2022-08-31T16:31:43.732Z,98725.38
2022-08-31T16:34:10.754Z,98731.75
2022-08-31T16:36:37.680Z,98732.09
2022-08-31T16:39:04.615Z,98737.31
2022-08-31T16:41:33.575Z,98740.13
2022-08-31T16:44:19.012Z,98756.16
2022-08-31T16:46:47.434Z,98737.66
2022-08-31T16:49:33.017Z,98755.34
2022-08-31T16:52:11.071Z,98757.00
2022-08-31T16:54:47.597Z,98743.31
2022-08-31T16:57:17.243Z,98760.13
2022-08-31T16:59:44.939Z,98755.34
2022-08-31T17:02:13.810Z,98757.75
2022-08-31T17:04:58.076Z,98760.19
2022-08-31T17:07:25.325Z,98754.91
2022-08-31T17:09:56.694Z,98764.91
2022-08-31T17:12:26.195Z,98765.31
2022-08-31T17:14:53.302Z,98762.81
2022-08-31T17:17:23.509Z,98764.41
2022-08-31T17:19:53.314Z,98754.41
2022-08-31T17:22:26.934Z,98761.53
2022-08-31T17:24:59.396Z,98766.38
2022-08-31T17:27:27.589Z,98765.22
2022-08-31T17:30:00.903Z,98765.22
2022-08-31T17:32:28.739Z,98762.41
2022-08-31T17:34:56.583Z,98763.56
2022-08-31T17:37:27.230Z,98761.53
2022-08-31T17:39:57.743Z,98767.16
2022-08-31T17:42:27.328Z,98766.34
2022-08-31T17:44:55.619Z,98767.03
2022-08-31T17:47:25.489Z,98760.22
2022-08-31T17:49:53.055Z,98752.13
2022-08-31T17:52:21.959Z,98757.38
2022-08-31T17:54:51.119Z,98750.22
2022-08-31T17:57:22.381Z,98771.88
2022-08-31T17:59:49.318Z,98762.66
2022-08-31T18:02:22.891Z,98761.84
2022-08-31T18:04:52.180Z,98767.03
2022-08-31T18:07:19.822Z,98775.03
2022-08-31T18:09:47.108Z,98759.81
2022-08-31T18:12:22.070Z,98762.22
2022-08-31T18:14:49.894Z,98764.59
2022-08-31T18:17:17.289Z,98761.78
2022-08-31T18:19:47.374Z,98761.34
2022-08-31T18:22:14.867Z,98761.72
2022-08-31T18:24:42.521Z,98755.66
2022-08-31T18:27:11.186Z,98768.13
2022-08-31T18:29:39.520Z,98762.88
2022-08-31T18:32:07.881Z,98773.28
2022-08-31T18:34:39.146Z,98758.81
2022-08-31T18:37:08.017Z,98757.13
2022-08-31T18:39:54.797Z,98762.34
2022-08-31T18:42:44.180Z,98752.25
2022-08-31T18:45:18.508Z,98757.84
2022-08-31T18:48:13.743Z,98758.56
2022-08-31T18:50:37.224Z,98764.19
2022-08-31T18:53:10.887Z,98752.19
2022-08-31T18:55:43.204Z,98756.16
2022-08-31T18:58:10.368Z,98754.59
2022-08-31T19:00:37.758Z,98757.03
2022-08-31T19:03:04.792Z,98751.75
2022-08-31T19:05:32.777Z,98748.91
2022-08-31T19:08:00.616Z,98746.44
2022-08-31T19:10:54.082Z,98743.13
2022-08-31T19:13:21.146Z,98745.03
2022-08-31T19:15:48.260Z,98751.06
2022-08-31T19:18:15.501Z,98747.06
2022-08-31T19:20:42.464Z,98747.81
2022-08-31T19:23:09.283Z,98747.41
2022-08-31T19:25:42.532Z,98749.78
2022-08-31T19:28:10.358Z,98750.06
2022-08-31T19:30:38.355Z,98754.50
2022-08-31T19:33:08.445Z,98748.41
2022-08-31T19:35:36.513Z,98747.16
2022-08-31T19:38:03.596Z,98739.91
2022-08-31T19:40:36.695Z,98733.47
2022-08-31T19:45:51.954Z,98734.50
2022-08-31T19:48:23.939Z,98727.25
2022-08-31T19:50:52.312Z,98730.44
2022-08-31T19:53:21.861Z,98726.75
2022-08-31T19:55:54.919Z,98742.78
2022-08-31T19:58:26.551Z,98723.75
2022-08-31T20:01:04.267Z,98733.59
2022-08-31T20:03:34.252Z,98751.16
2022-08-31T20:06:12.646Z,98741.75
2022-08-31T20:08:41.273Z,98736.22
2022-08-31T20:11:09.624Z,98734.22
2022-08-31T20:13:38.550Z,98731.00
2022-08-31T20:16:06.344Z,98736.59
2022-08-31T20:18:37.482Z,98735.78
2022-08-31T20:21:16.938Z,98744.03
2022-08-31T20:23:48.246Z,98748.41
2022-08-31T20:26:17.315Z,98743.13
2022-08-31T20:28:46.846Z,98728.59
2022-08-31T20:31:14.179Z,98737.09
2022-08-31T20:33:42.341Z,98736.59
2022-08-31T20:36:33.538Z,98733.00
2022-08-31T20:39:02.776Z,98741.38
2022-08-31T20:41:36.115Z,98750.13
2022-08-31T20:44:12.014Z,98744.06
2022-08-31T20:47:05.283Z,98732.13
2022-08-31T20:49:35.790Z,98732.00
2022-08-31T20:52:03.625Z,98725.97
2022-08-31T20:54:31.708Z,98731.50
2022-08-31T20:57:00.967Z,98725.84
2022-08-31T20:59:27.919Z,98730.97
2022-08-31T21:02:02.175Z,98727.03
2022-08-31T21:04:30.703Z,98727.72
2022-08-31T21:06:59.846Z,98728.53
2022-08-31T21:09:27.428Z,98724.06
2022-08-31T21:11:56.146Z,98722.41
2022-08-31T21:14:27.147Z,98723.59
2022-08-31T21:16:55.642Z,98708.72
2022-08-31T21:19:24.403Z,98707.94
2022-08-31T21:21:55.951Z,98699.19
2022-08-31T21:24:23.035Z,98701.63
2022-08-31T21:26:57.274Z,98696.94
2022-08-31T21:29:24.056Z,98692.13
2022-08-31T21:31:58.303Z,98688.47
2022-08-31T21:34:29.823Z,98688.41
2022-08-31T21:36:56.770Z,98693.59
2022-08-31T21:39:25.052Z,98707.22
2022-08-31T21:41:52.032Z,98704.88
2022-08-31T21:44:23.072Z,98702.00
2022-08-31T21:46:51.019Z,98704.31
2022-08-31T21:49:22.936Z,98703.09
2022-08-31T21:51:54.678Z,98704.69
2022-08-31T21:54:27.351Z,98705.88
2022-08-31T21:57:04.356Z,98703.13
2022-08-31T21:59:35.239Z,98708.72
2022-08-31T22:02:06.925Z,98699.66
2022-08-31T22:04:38.500Z,98691.63
2022-08-31T22:07:07.826Z,98694.34
2022-08-31T22:09:36.903Z,98679.81
2022-08-31T22:12:06.696Z,98690.06
2022-08-31T22:14:37.362Z,98705.56
2022-08-31T22:17:07.160Z,98702.75
2022-08-31T22:19:38.195Z,98694.72
2022-08-31T22:22:09.250Z,98684.28
2022-08-31T22:24:40.478Z,98689.00
2022-08-31T22:27:09.893Z,98688.06
2022-08-31T22:29:38.220Z,98684.34
2022-08-31T22:32:10.216Z,98693.91
2022-08-31T22:34:39.049Z,98695.75
2022-08-31T22:37:06.426Z,98695.28
2022-08-31T22:39:33.346Z,98691.59
2022-08-31T22:42:01.654Z,98695.13
2022-08-31T22:44:32.408Z,98695.13
2022-08-31T22:46:59.475Z,98698.97
2022-08-31T22:49:27.173Z,98696.09
2022-08-31T22:51:54.938Z,98682.06
2022-08-31T22:54:23.184Z,98688.38
2022-08-31T22:56:50.188Z,98685.88
2022-08-31T22:59:24.858Z,98688.47
2022-08-31T23:01:55.023Z,98695.56
2022-08-31T23:04:24.672Z,98688.38
2022-08-31T23:06:52.777Z,98689.84
2022-08-31T23:09:26.666Z,98691.00
2022-08-31T23:11:58.200Z,98689.78
2022-08-31T23:14:25.048Z,98691.38
2022-08-31T23:16:58.063Z,98696.16
2022-08-31T23:19:36.942Z,98701.88
2022-08-31T23:22:09.519Z,98705.78
2022-08-31T23:24:47.078Z,98706.28
2022-08-31T23:27:19.519Z,98711.16
2022-08-31T23:29:52.571Z,98708.97
2022-08-31T23:32:21.996Z,98723.69
2022-08-31T23:34:52.844Z,98715.78
2022-08-31T23:37:23.168Z,98715.94
2022-08-31T23:39:54.449Z,98722.56
2022-08-31T23:42:23.639Z,98722.91
2022-08-31T23:44:51.136Z,98722.47
2022-08-31T23:47:23.778Z,98719.38
2022-08-31T23:49:51.418Z,98714.91
2022-08-31T23:52:26.291Z,98713.81
2022-08-31T23:54:57.768Z,98721.38
2022-08-31T23:57:32.264Z,98723.41
